sensor_id;sensor_type;location;lat;lon;timestamp;pressure;altitude;pressure_sealevel;temperature;humidity
52719;BME280;38616;42.140;24.760;2023-07-13T00:02:02;99595.97;;;28.24;48.14
52719;BME280;38616;42.140;24.760;2023-07-13T00:04:28;99588.41;;;28.21;48.23
52719;BME280;38616;42.140;24.760;2023-07-13T00:06:53;99592.34;;;28.27;48.49
52719;BME280;38616;42.140;24.760;2023-07-13T00:09:19;99589.13;;;28.46;47.98
52719;BME280;38616;42.140;24.760;2023-07-13T00:11:45;99591.91;;;28.54;47.67
52719;BME280;38616;42.140;24.760;2023-07-13T00:14:12;99586.28;;;28.61;47.69
52719;BME280;38616;42.140;24.760;2023-07-13T00:16:38;99581.06;;;28.78;47.37
52719;BME280;38616;42.140;24.760;2023-07-13T00:19:05;99589.06;;;28.68;47.46
52719;BME280;38616;42.140;24.760;2023-07-13T00:21:31;99585.06;;;28.69;47.41
52719;BME280;38616;42.140;24.760;2023-07-13T00:23:57;99582.28;;;28.62;47.45
52719;BME280;38616;42.140;24.760;2023-07-13T00:26:22;99577.91;;;28.61;47.27
52719;BME280;38616;42.140;24.760;2023-07-13T00:31:24;99577.50;;;28.66;46.97
52719;BME280;38616;42.140;24.760;2023-07-13T00:33:49;99569.97;;;28.41;47.78
52719;BME280;38616;42.140;24.760;2023-07-13T00:36:14;99574.81;;;28.26;48.14
52719;BME280;38616;42.140;24.760;2023-07-13T00:38:40;99568.44;;;28.26;47.95
52719;BME280;38616;42.140;24.760;2023-07-13T00:41:05;99566.00;;;28.35;47.74
52719;BME280;38616;42.140;24.760;2023-07-13T00:43:31;99566.72;;;28.65;46.99
52719;BME280;38616;42.140;24.760;2023-07-13T00:48:24;99567.94;;;28.64;46.96
52719;BME280;38616;42.140;24.760;2023-07-13T00:50:52;99569.94;;;28.56;46.91
52719;BME280;38616;42.140;24.760;2023-07-13T00:53:18;99561.94;;;28.65;46.61
52719;BME280;38616;42.140;24.760;2023-07-13T00:55:44;99569.22;;;28.30;47.14
52719;BME280;38616;42.140;24.760;2023-07-13T00:58:10;99565.66;;;28.26;46.94
52719;BME280;38616;42.140;24.760;2023-07-13T01:00:36;99561.66;;;28.05;47.42
52719;BME280;38616;42.140;24.760;2023-07-13T01:03:03;99561.25;;;28.10;47.05
52719;BME280;38616;42.140;24.760;2023-07-13T01:05:30;99558.41;;;28.39;46.52
52719;BME280;38616;42.140;24.760;2023-07-13T01:07:56;99566.72;;;28.65;46.00
52719;BME280;38616;42.140;24.760;2023-07-13T01:10:22;99554.28;;;28.73;45.58
52719;BME280;38616;42.140;24.760;2023-07-13T01:12:47;99544.31;;;28.72;45.75
52719;BME280;38616;42.140;24.760;2023-07-13T01:17:56;99547.91;;;28.87;44.75
52719;BME280;38616;42.140;24.760;2023-07-13T01:20:21;99545.53;;;28.74;45.00
52719;BME280;38616;42.140;24.760;2023-07-13T01:22:47;99553.91;;;28.82;45.10
52719;BME280;38616;42.140;24.760;2023-07-13T01:25:12;99549.94;;;28.68;45.28
52719;BME280;38616;42.140;24.760;2023-07-13T01:27:37;99550.91;;;27.85;46.15
52719;BME280;38616;42.140;24.760;2023-07-13T01:30:06;99560.47;;;27.55;47.05
52719;BME280;38616;42.140;24.760;2023-07-13T01:32:32;99561.28;;;27.67;46.92
52719;BME280;38616;42.140;24.760;2023-07-13T01:34:57;99549.31;;;27.84;46.74
52719;BME280;38616;42.140;24.760;2023-07-13T01:37:24;99561.69;;;27.83;46.67
52719;BME280;38616;42.140;24.760;2023-07-13T01:39:49;99558.88;;;27.76;46.53
52719;BME280;38616;42.140;24.760;2023-07-13T01:42:14;99562.03;;;27.35;47.42
52719;BME280;38616;42.140;24.760;2023-07-13T01:44:40;99555.63;;;27.27;47.82
52719;BME280;38616;42.140;24.760;2023-07-13T01:47:05;99561.16;;;27.12;48.33
52719;BME280;38616;42.140;24.760;2023-07-13T01:49:31;99563.22;;;27.26;48.21
52719;BME280;38616;42.140;24.760;2023-07-13T01:51:56;99564.41;;;27.33;47.92
52719;BME280;38616;42.140;24.760;2023-07-13T01:54:22;99553.69;;;27.64;47.23
52719;BME280;38616;42.140;24.760;2023-07-13T01:56:47;99556.44;;;27.31;47.81
52719;BME280;38616;42.140;24.760;2023-07-13T01:59:13;99565.97;;;27.19;48.31
52719;BME280;38616;42.140;24.760;2023-07-13T02:01:38;99569.16;;;27.14;48.48
52719;BME280;38616;42.140;24.760;2023-07-13T02:04:03;99572.34;;;27.20;48.59
52719;BME280;38616;42.140;24.760;2023-07-13T02:06:28;99569.16;;;27.18;48.32
52719;BME280;38616;42.140;24.760;2023-07-13T02:08:54;99567.19;;;27.29;48.30
52719;BME280;38616;42.140;24.760;2023-07-13T02:11:19;99572.75;;;27.22;48.43
52719;BME280;38616;42.140;24.760;2023-07-13T02:13:44;99578.72;;;27.17;48.79
52719;BME280;38616;42.140;24.760;2023-07-13T02:16:10;99577.91;;;27.12;48.74
52719;BME280;38616;42.140;24.760;2023-07-13T02:18:35;99583.53;;;27.45;48.19
52719;BME280;38616;42.140;24.760;2023-07-13T02:21:00;99580.38;;;27.50;47.86
52719;BME280;38616;42.140;24.760;2023-07-13T02:23:26;99581.22;;;27.69;47.52
52719;BME280;38616;42.140;24.760;2023-07-13T02:25:55;99588.25;;;27.16;48.67
52719;BME280;38616;42.140;24.760;2023-07-13T02:28:20;99589.50;;;27.40;48.49
52719;BME280;38616;42.140;24.760;2023-07-13T02:30:45;99593.13;;;27.51;48.04
52719;BME280;38616;42.140;24.760;2023-07-13T02:33:13;99593.94;;;27.55;47.89
52719;BME280;38616;42.140;24.760;2023-07-13T02:35:38;99595.94;;;27.66;47.74
52719;BME280;38616;42.140;24.760;2023-07-13T02:38:04;99602.34;;;27.70;47.72
52719;BME280;38616;42.140;24.760;2023-07-13T02:40:29;99596.75;;;27.77;47.43
52719;BME280;38616;42.140;24.760;2023-07-13T02:42:54;99595.19;;;27.72;47.59
52719;BME280;38616;42.140;24.760;2023-07-13T02:45:19;99595.16;;;27.69;47.59
52719;BME280;38616;42.140;24.760;2023-07-13T02:47:45;99599.94;;;27.79;47.35
52719;BME280;38616;42.140;24.760;2023-07-13T02:50:10;99596.34;;;27.75;47.45
52719;BME280;38616;42.140;24.760;2023-07-13T02:52:36;99590.00;;;27.82;47.16
52719;BME280;38616;42.140;24.760;2023-07-13T02:55:01;99602.72;;;27.83;47.03
52719;BME280;38616;42.140;24.760;2023-07-13T02:57:27;99607.53;;;27.79;47.33
52719;BME280;38616;42.140;24.760;2023-07-13T02:59:53;99605.53;;;27.86;46.94
52719;BME280;38616;42.140;24.760;2023-07-13T03:02:18;99609.91;;;27.84;46.72
52719;BME280;38616;42.140;24.760;2023-07-13T03:04:44;99602.75;;;27.86;46.84
52719;BME280;38616;42.140;24.760;2023-07-13T03:07:09;99604.34;;;27.80;46.92
52719;BME280;38616;42.140;24.760;2023-07-13T03:09:34;99597.56;;;27.74;47.08
52719;BME280;38616;42.140;24.760;2023-07-13T03:12:00;99608.31;;;27.68;46.85
52719;BME280;38616;42.140;24.760;2023-07-13T03:14:25;99594.34;;;27.54;47.11
52719;BME280;38616;42.140;24.760;2023-07-13T03:16:50;99603.91;;;27.56;46.99
52719;BME280;38616;42.140;24.760;2023-07-13T03:19:17;99609.03;;;27.40;47.44
52719;BME280;38616;42.140;24.760;2023-07-13T03:21:42;99597.84;;;27.29;47.57
52719;BME280;38616;42.140;24.760;2023-07-13T03:24:07;99603.03;;;27.34;47.73
52719;BME280;38616;42.140;24.760;2023-07-13T03:26:33;99595.13;;;27.54;47.34
52719;BME280;38616;42.140;24.760;2023-07-13T03:28:58;99587.19;;;27.78;46.55
52719;BME280;38616;42.140;24.760;2023-07-13T03:31:25;99591.56;;;27.72;46.50
52719;BME280;38616;42.140;24.760;2023-07-13T03:33:54;99585.19;;;27.90;46.13
52719;BME280;38616;42.140;24.760;2023-07-13T03:36:21;99593.56;;;27.82;45.54
52719;BME280;38616;42.140;24.760;2023-07-13T03:38:51;99587.22;;;27.82;46.08
52719;BME280;38616;42.140;24.760;2023-07-13T03:41:17;99591.56;;;27.86;46.10
52719;BME280;38616;42.140;24.760;2023-07-13T03:43:42;99590.78;;;27.86;46.23
52719;BME280;38616;42.140;24.760;2023-07-13T03:46:08;99591.56;;;27.97;45.86
52719;BME280;38616;42.140;24.760;2023-07-13T03:48:33;99583.59;;;27.99;45.51
52719;BME280;38616;42.140;24.760;2023-07-13T03:50:59;99581.22;;;28.16;44.96
52719;BME280;38616;42.140;24.760;2023-07-13T03:53:24;99580.00;;;28.24;44.61
52719;BME280;38616;42.140;24.760;2023-07-13T03:55:49;99584.41;;;28.14;45.03
52719;BME280;38616;42.140;24.760;2023-07-13T03:58:26;99597.16;;;28.01;45.25
52719;BME280;38616;42.140;24.760;2023-07-13T04:00:52;99604.31;;;28.06;45.04
52719;BME280;38616;42.140;24.760;2023-07-13T04:03:18;99608.31;;;28.12;45.09
52719;BME280;38616;42.140;24.760;2023-07-13T04:05:43;99599.16;;;28.26;44.50
52719;BME280;38616;42.140;24.760;2023-07-13T04:08:08;99597.16;;;28.26;44.52
52719;BME280;38616;42.140;24.760;2023-07-13T04:10:34;99599.56;;;28.13;45.21
52719;BME280;38616;42.140;24.760;2023-07-13T04:12:59;99605.13;;;27.84;45.69
52719;BME280;38616;42.140;24.760;2023-07-13T04:15:24;99606.72;;;27.53;46.78
52719;BME280;38616;42.140;24.760;2023-07-13T04:17:49;99607.09;;;27.66;46.14
52719;BME280;38616;42.140;24.760;2023-07-13T04:20:15;99611.91;;;27.91;45.80
52719;BME280;38616;42.140;24.760;2023-07-13T04:22:40;99613.91;;;27.94;45.77
52719;BME280;38616;42.140;24.760;2023-07-13T04:25:05;99611.53;;;27.96;45.80
52719;BME280;38616;42.140;24.760;2023-07-13T04:27:31;99617.09;;;27.81;46.17
52719;BME280;38616;42.140;24.760;2023-07-13T04:29:56;99621.47;;;27.75;46.28
52719;BME280;38616;42.140;24.760;2023-07-13T04:32:21;99614.69;;;27.83;46.33
52719;BME280;38616;42.140;24.760;2023-07-13T04:34:47;99614.31;;;28.03;46.07
52719;BME280;38616;42.140;24.760;2023-07-13T04:37:12;99623.09;;;28.12;45.81
52719;BME280;38616;42.140;24.760;2023-07-13T04:39:37;99623.50;;;28.14;45.88
52719;BME280;38616;42.140;24.760;2023-07-13T04:42:03;99618.69;;;28.11;45.79
52719;BME280;38616;42.140;24.760;2023-07-13T04:44:28;99621.09;;;27.77;47.07
52719;BME280;38616;42.140;24.760;2023-07-13T04:46:53;99623.88;;;28.02;46.57
52719;BME280;38616;42.140;24.760;2023-07-13T04:49:19;99621.09;;;27.87;46.68
52719;BME280;38616;42.140;24.760;2023-07-13T04:51:45;99625.88;;;27.72;46.92
52719;BME280;38616;42.140;24.760;2023-07-13T04:54:10;99621.09;;;27.77;47.11
52719;BME280;38616;42.140;24.760;2023-07-13T04:56:35;99634.66;;;27.93;46.31
52719;BME280;38616;42.140;24.760;2023-07-13T04:59:02;99625.88;;;28.27;45.43
52719;BME280;38616;42.140;24.760;2023-07-13T05:01:33;99626.69;;;28.16;45.54
52719;BME280;38616;42.140;24.760;2023-07-13T05:03:59;99631.44;;;27.91;45.26
52719;BME280;38616;42.140;24.760;2023-07-13T05:06:24;99626.28;;;28.07;45.35
52719;BME280;38616;42.140;24.760;2023-07-13T05:08:50;99627.44;;;27.95;45.62
52719;BME280;38616;42.140;24.760;2023-07-13T05:11:15;99632.25;;;28.20;45.04
52719;BME280;38616;42.140;24.760;2023-07-13T05:13:40;99635.84;;;27.84;45.92
52719;BME280;38616;42.140;24.760;2023-07-13T05:16:06;99635.06;;;28.16;45.26
52719;BME280;38616;42.140;24.760;2023-07-13T05:18:32;99634.63;;;27.96;45.76
52719;BME280;38616;42.140;24.760;2023-07-13T05:21:04;99625.06;;;28.37;44.95
52719;BME280;38616;42.140;24.760;2023-07-13T05:23:31;99632.56;;;28.69;44.37
52719;BME280;38616;42.140;24.760;2023-07-13T05:25:57;99628.97;;;28.72;44.05
52719;BME280;38616;42.140;24.760;2023-07-13T05:28:22;99626.56;;;28.85;44.21
52719;BME280;38616;42.140;24.760;2023-07-13T05:30:48;99627.75;;;28.88;43.96
52719;BME280;38616;42.140;24.760;2023-07-13T05:33:14;99630.22;;;28.42;44.20
52719;BME280;38616;42.140;24.760;2023-07-13T05:35:39;99630.66;;;28.08;45.59
52719;BME280;38616;42.140;24.760;2023-07-13T05:38:05;99631.84;;;28.29;45.10
52719;BME280;38616;42.140;24.760;2023-07-13T05:40:30;99635.06;;;28.27;44.90
52719;BME280;38616;42.140;24.760;2023-07-13T05:42:55;99637.84;;;28.13;45.37
52719;BME280;38616;42.140;24.760;2023-07-13T05:45:21;99637.03;;;27.80;45.75
52719;BME280;38616;42.140;24.760;2023-07-13T05:47:47;99638.63;;;27.92;45.73
52719;BME280;38616;42.140;24.760;2023-07-13T05:50:12;99633.84;;;28.10;45.57
52719;BME280;38616;42.140;24.760;2023-07-13T05:52:37;99627.06;;;28.29;44.81
52719;BME280;38616;42.140;24.760;2023-07-13T05:55:03;99625.84;;;28.41;44.39
52719;BME280;38616;42.140;24.760;2023-07-13T05:57:29;99636.25;;;28.08;45.45
52719;BME280;38616;42.140;24.760;2023-07-13T05:59:55;99635.03;;;28.09;45.65
52719;BME280;38616;42.140;24.760;2023-07-13T06:02:20;99631.50;;;28.12;45.63
52719;BME280;38616;42.140;24.760;2023-07-13T06:04:45;99633.06;;;28.21;45.49
52719;BME280;38616;42.140;24.760;2023-07-13T06:07:10;99638.22;;;28.37;44.77
52719;BME280;38616;42.140;24.760;2023-07-13T06:09:36;99630.22;;;28.57;45.00
52719;BME280;38616;42.140;24.760;2023-07-13T06:12:01;99630.22;;;28.53;44.99
52719;BME280;38616;42.140;24.760;2023-07-13T06:14:26;99639.31;;;28.94;44.43
52719;BME280;38616;42.140;24.760;2023-07-13T06:16:52;99632.88;;;29.04;43.75
52719;BME280;38616;42.140;24.760;2023-07-13T06:19:17;99643.31;;;28.89;43.77
52719;BME280;38616;42.140;24.760;2023-07-13T06:21:42;99633.34;;;28.84;44.17
52719;BME280;38616;42.140;24.760;2023-07-13T06:24:07;99634.88;;;29.00;43.81
52719;BME280;38616;42.140;24.760;2023-07-13T06:26:33;99625.69;;;29.03;42.59
52719;BME280;38616;42.140;24.760;2023-07-13T06:28:58;99631.63;;;29.12;42.89
52719;BME280;38616;42.140;24.760;2023-07-13T06:31:23;99624.84;;;29.13;43.04
52719;BME280;38616;42.140;24.760;2023-07-13T06:33:49;99620.59;;;29.61;42.13
52719;BME280;38616;42.140;24.760;2023-07-13T06:36:14;99627.66;;;29.81;41.96
52719;BME280;38616;42.140;24.760;2023-07-13T06:38:39;99627.06;;;30.07;41.61
52719;BME280;38616;42.140;24.760;2023-07-13T06:41:05;99616.34;;;29.99;39.81
52719;BME280;38616;42.140;24.760;2023-07-13T06:43:31;99604.09;;;30.23;40.30
52719;BME280;38616;42.140;24.760;2023-07-13T06:45:57;99611.81;;;30.12;40.46
52719;BME280;38616;42.140;24.760;2023-07-13T06:48:22;99608.41;;;30.35;40.57
52719;BME280;38616;42.140;24.760;2023-07-13T06:50:48;99605.94;;;30.41;40.03
52719;BME280;38616;42.140;24.760;2023-07-13T06:53:17;99609.38;;;30.14;40.20
52719;BME280;38616;42.140;24.760;2023-07-13T06:55:43;99606.53;;;30.21;39.88
52719;BME280;38616;42.140;24.760;2023-07-13T06:58:08;99606.28;;;30.47;39.42
52719;BME280;38616;42.140;24.760;2023-07-13T07:00:34;99609.31;;;30.21;39.28
52719;BME280;38616;42.140;24.760;2023-07-13T07:02:59;99608.94;;;30.19;39.29
52719;BME280;38616;42.140;24.760;2023-07-13T07:05:24;99601.03;;;30.49;39.25
52719;BME280;38616;42.140;24.760;2023-07-13T07:07:50;99602.78;;;30.74;39.00
52719;BME280;38616;42.140;24.760;2023-07-13T07:10:16;99615.94;;;30.80;38.83
52719;BME280;38616;42.140;24.760;2023-07-13T07:12:41;99605.19;;;30.75;38.75
52719;BME280;38616;42.140;24.760;2023-07-13T07:15:06;99610.06;;;30.67;38.87
52719;BME280;38616;42.140;24.760;2023-07-13T07:17:32;99609.13;;;30.81;38.58
52719;BME280;38616;42.140;24.760;2023-07-13T07:19:57;99611.28;;;30.66;39.75
52719;BME280;38616;42.140;24.760;2023-07-13T07:22:22;99605.75;;;30.59;40.11
52719;BME280;38616;42.140;24.760;2023-07-13T07:24:48;99614.91;;;30.63;39.86
52719;BME280;38616;42.140;24.760;2023-07-13T07:27:13;99610.38;;;30.39;39.21
52719;BME280;38616;42.140;24.760;2023-07-13T07:29:38;99604.78;;;30.35;40.12
52719;BME280;38616;42.140;24.760;2023-07-13T07:32:04;99602.25;;;30.48;39.12
52719;BME280;38616;42.140;24.760;2023-07-13T07:34:30;99605.78;;;30.56;39.23
52719;BME280;38616;42.140;24.760;2023-07-13T07:37:00;99608.47;;;30.66;39.29
52719;BME280;38616;42.140;24.760;2023-07-13T07:39:28;99606.88;;;30.69;39.27
52719;BME280;38616;42.140;24.760;2023-07-13T07:41:53;99592.75;;;31.07;39.24
52719;BME280;38616;42.140;24.760;2023-07-13T07:44:19;99599.03;;;31.19;38.34
52719;BME280;38616;42.140;24.760;2023-07-13T07:46:44;99593.09;;;31.13;38.04
52719;BME280;38616;42.140;24.760;2023-07-13T07:49:09;99594.78;;;31.07;38.25
52719;BME280;38616;42.140;24.760;2023-07-13T07:51:38;99595.19;;;31.36;37.38
52719;BME280;38616;42.140;24.760;2023-07-13T07:54:03;99596.03;;;31.33;37.59
52719;BME280;38616;42.140;24.760;2023-07-13T07:56:29;99594.31;;;31.12;37.73
52719;BME280;38616;42.140;24.760;2023-07-13T07:58:55;99594.03;;;31.34;37.74
52719;BME280;38616;42.140;24.760;2023-07-13T08:01:20;99594.16;;;31.50;37.33
52719;BME280;38616;42.140;24.760;2023-07-13T08:03:45;99584.16;;;31.49;36.72
52719;BME280;38616;42.140;24.760;2023-07-13T08:06:10;99587.34;;;31.79;36.79
52719;BME280;38616;42.140;24.760;2023-07-13T08:08:36;99581.09;;;31.91;36.34
52719;BME280;38616;42.140;24.760;2023-07-13T08:11:05;99580.00;;;32.09;36.08
52719;BME280;38616;42.140;24.760;2023-07-13T08:13:30;99579.72;;;32.23;35.36
52719;BME280;38616;42.140;24.760;2023-07-13T08:15:56;99577.25;;;32.29;35.53
52719;BME280;38616;42.140;24.760;2023-07-13T08:18:21;99575.81;;;32.41;34.80
52719;BME280;38616;42.140;24.760;2023-07-13T08:20:46;99571.06;;;32.58;34.81
52719;BME280;38616;42.140;24.760;2023-07-13T08:23:12;99574.53;;;32.66;35.46
52719;BME280;38616;42.140;24.760;2023-07-13T08:25:40;99566.38;;;32.71;35.33
52719;BME280;38616;42.140;24.760;2023-07-13T08:28:05;99571.50;;;32.77;35.36
52719;BME280;38616;42.140;24.760;2023-07-13T08:30:30;99560.03;;;32.88;35.60
52719;BME280;38616;42.140;24.760;2023-07-13T08:32:55;99565.50;;;32.95;34.94
52719;BME280;38616;42.140;24.760;2023-07-13T08:35:21;99568.19;;;33.19;34.25
52719;BME280;38616;42.140;24.760;2023-07-13T08:37:46;99569.03;;;32.99;33.99
52719;BME280;38616;42.140;24.760;2023-07-13T08:40:11;99557.44;;;32.77;34.68
52719;BME280;38616;42.140;24.760;2023-07-13T08:42:46;99554.91;;;33.03;33.95
52719;BME280;38616;42.140;24.760;2023-07-13T08:48:03;99554.75;;;33.26;33.70
52719;BME280;38616;42.140;24.760;2023-07-13T08:50:30;99538.41;;;33.38;33.03
52719;BME280;38616;42.140;24.760;2023-07-13T08:52:56;99537.13;;;33.42;32.63
52719;BME280;38616;42.140;24.760;2023-07-13T08:55:27;99536.84;;;33.53;32.72
52719;BME280;38616;42.140;24.760;2023-07-13T08:58:03;99535.03;;;33.26;32.70
52719;BME280;38616;42.140;24.760;2023-07-13T09:00:37;99533.97;;;33.40;32.60
52719;BME280;38616;42.140;24.760;2023-07-13T09:03:03;99529.97;;;33.54;32.90
52719;BME280;38616;42.140;24.760;2023-07-13T09:05:34;99532.59;;;33.78;33.56
52719;BME280;38616;42.140;24.760;2023-07-13T09:10:48;99529.16;;;34.03;32.12
52719;BME280;38616;42.140;24.760;2023-07-13T09:15:53;99518.06;;;34.26;32.41
52719;BME280;38616;42.140;24.760;2023-07-13T09:18:23;99523.16;;;34.31;31.62
52719;BME280;38616;42.140;24.760;2023-07-13T09:20:52;99517.88;;;34.03;31.15
52719;BME280;38616;42.140;24.760;2023-07-13T09:23:20;99522.94;;;33.96;31.38
52719;BME280;38616;42.140;24.760;2023-07-13T09:25:53;99517.41;;;34.05;31.35
52719;BME280;38616;42.140;24.760;2023-07-13T09:28:23;99508.38;;;34.27;31.24
52719;BME280;38616;42.140;24.760;2023-07-13T09:30:51;99513.72;;;34.38;30.19
52719;BME280;38616;42.140;24.760;2023-07-13T09:33:18;99493.44;;;34.43;29.69
52719;BME280;38616;42.140;24.760;2023-07-13T09:35:44;99490.66;;;34.56;29.99
52719;BME280;38616;42.140;24.760;2023-07-13T09:38:16;99487.28;;;34.74;29.87
52719;BME280;38616;42.140;24.760;2023-07-13T09:43:25;99478.25;;;34.53;29.14
52719;BME280;38616;42.140;24.760;2023-07-13T09:45:53;99475.44;;;34.66;28.71
52719;BME280;38616;42.140;24.760;2023-07-13T09:48:19;99460.75;;;34.58;28.56
52719;BME280;38616;42.140;24.760;2023-07-13T09:50:44;99464.97;;;34.80;29.64
52719;BME280;38616;42.140;24.760;2023-07-13T09:53:11;99456.50;;;34.92;27.60
52719;BME280;38616;42.140;24.760;2023-07-13T09:55:38;99457.97;;;34.84;27.73
52719;BME280;38616;42.140;24.760;2023-07-13T10:00:32;99453.81;;;35.02;28.92
52719;BME280;38616;42.140;24.760;2023-07-13T10:03:02;99446.13;;;34.89;29.02
52719;BME280;38616;42.140;24.760;2023-07-13T10:05:36;99449.94;;;34.96;28.68
52719;BME280;38616;42.140;24.760;2023-07-13T10:08:02;99442.41;;;35.05;28.96
52719;BME280;38616;42.140;24.760;2023-07-13T10:10:29;99441.94;;;35.07;28.21
52719;BME280;38616;42.140;24.760;2023-07-13T10:12:55;99433.00;;;35.21;29.00
52719;BME280;38616;42.140;24.760;2023-07-13T10:15:21;99433.78;;;35.22;29.42
52719;BME280;38616;42.140;24.760;2023-07-13T10:17:47;99433.22;;;35.27;29.18
52719;BME280;38616;42.140;24.760;2023-07-13T10:20:12;99434.03;;;35.28;29.59
52719;BME280;38616;42.140;24.760;2023-07-13T10:22:42;99432.84;;;35.38;29.48
52719;BME280;38616;42.140;24.760;2023-07-13T10:25:16;99426.28;;;35.54;29.56
52719;BME280;38616;42.140;24.760;2023-07-13T10:27:45;99433.47;;;35.68;28.95
52719;BME280;38616;42.140;24.760;2023-07-13T10:30:29;99435.75;;;35.60;25.81
52719;BME280;38616;42.140;24.760;2023-07-13T10:33:00;99423.97;;;35.62;25.90
52719;BME280;38616;42.140;24.760;2023-07-13T10:35:29;99421.31;;;35.58;25.06
52719;BME280;38616;42.140;24.760;2023-07-13T10:37:57;99425.31;;;35.70;24.97
52719;BME280;38616;42.140;24.760;2023-07-13T10:40:31;99414.75;;;35.84;24.61
52719;BME280;38616;42.140;24.760;2023-07-13T10:42:58;99409.50;;;35.73;24.01
52719;BME280;38616;42.140;24.760;2023-07-13T10:45:25;99410.16;;;35.42;23.96
52719;BME280;38616;42.140;24.760;2023-07-13T10:47:52;99408.22;;;35.52;23.93
52719;BME280;38616;42.140;24.760;2023-07-13T10:50:24;99400.47;;;35.65;24.29
52719;BME280;38616;42.140;24.760;2023-07-13T10:52:51;99406.06;;;35.78;23.77
52719;BME280;38616;42.140;24.760;2023-07-13T10:58:11;99406.09;;;36.00;23.49
52719;BME280;38616;42.140;24.760;2023-07-13T11:00:43;99398.72;;;36.03;23.71
52719;BME280;38616;42.140;24.760;2023-07-13T11:03:13;99385.31;;;36.16;23.24
52719;BME280;38616;42.140;24.760;2023-07-13T11:05:39;99378.94;;;36.34;23.27
52719;BME280;38616;42.140;24.760;2023-07-13T11:15:58;99373.28;;;36.34;23.23
52719;BME280;38616;42.140;24.760;2023-07-13T11:18:24;99378.06;;;36.47;22.74
52719;BME280;38616;42.140;24.760;2023-07-13T11:20:50;99377.47;;;36.52;23.13
52719;BME280;38616;42.140;24.760;2023-07-13T11:25:43;99368.53;;;36.53;22.31
52719;BME280;38616;42.140;24.760;2023-07-13T11:38:24;99365.31;;;36.83;22.32
52719;BME280;38616;42.140;24.760;2023-07-13T11:40:54;99361.06;;;36.88;22.19
52719;BME280;38616;42.140;24.760;2023-07-13T11:43:20;99364.59;;;37.01;22.25
52719;BME280;38616;42.140;24.760;2023-07-13T11:45:48;99359.72;;;37.02;22.07
52719;BME280;38616;42.140;24.760;2023-07-13T11:48:21;99360.13;;;36.91;21.85
52719;BME280;38616;42.140;24.760;2023-07-13T11:50:51;99349.31;;;36.89;21.99
52719;BME280;38616;42.140;24.760;2023-07-13T11:53:17;99349.31;;;36.89;21.76
52719;BME280;38616;42.140;24.760;2023-07-13T11:55:42;99347.78;;;36.97;21.78
52719;BME280;38616;42.140;24.760;2023-07-13T11:58:07;99344.31;;;37.12;21.47
52719;BME280;38616;42.140;24.760;2023-07-13T12:00:34;99339.13;;;37.20;21.69
52719;BME280;38616;42.140;24.760;2023-07-13T12:03:00;99334.56;;;37.32;21.52
52719;BME280;38616;42.140;24.760;2023-07-13T12:05:27;99332.53;;;37.41;21.82
52719;BME280;38616;42.140;24.760;2023-07-13T12:07:54;99321.34;;;37.38;21.42
52719;BME280;38616;42.140;24.760;2023-07-13T12:12:47;99311.78;;;37.35;21.39
52719;BME280;38616;42.140;24.760;2023-07-13T12:15:13;99314.13;;;37.37;21.12
52719;BME280;38616;42.140;24.760;2023-07-13T12:17:38;99317.56;;;37.41;21.39
52719;BME280;38616;42.140;24.760;2023-07-13T12:20:07;99305.78;;;37.33;21.05
52719;BME280;38616;42.140;24.760;2023-07-13T12:22:39;99297.13;;;37.37;21.05
52719;BME280;38616;42.140;24.760;2023-07-13T12:25:04;99301.88;;;37.49;21.07
52719;BME280;38616;42.140;24.760;2023-07-13T12:27:30;99295.53;;;37.64;23.71
52719;BME280;38616;42.140;24.760;2023-07-13T12:30:02;99301.53;;;37.66;24.08
52719;BME280;38616;42.140;24.760;2023-07-13T12:32:30;99292.41;;;37.62;23.99
52719;BME280;38616;42.140;24.760;2023-07-13T12:35:13;99294.44;;;37.61;23.96
52719;BME280;38616;42.140;24.760;2023-07-13T12:37:41;99291.59;;;37.70;23.27
52719;BME280;38616;42.140;24.760;2023-07-13T12:40:12;99289.69;;;37.67;23.86
52719;BME280;38616;42.140;24.760;2023-07-13T12:42:37;99280.25;;;37.70;24.64
52719;BME280;38616;42.140;24.760;2023-07-13T12:45:15;99273.94;;;37.76;24.38
52719;BME280;38616;42.140;24.760;2023-07-13T12:47:43;99272.22;;;37.78;24.01
52719;BME280;38616;42.140;24.760;2023-07-13T12:50:12;99273.44;;;37.87;22.68
52719;BME280;38616;42.140;24.760;2023-07-13T12:52:39;99269.72;;;37.71;23.50
52719;BME280;38616;42.140;24.760;2023-07-13T12:55:11;99265.94;;;37.74;23.48
52719;BME280;38616;42.140;24.760;2023-07-13T13:02:50;99258.59;;;38.01;23.15
52719;BME280;38616;42.140;24.760;2023-07-13T13:05:15;99252.94;;;38.01;23.10
52719;BME280;38616;42.140;24.760;2023-07-13T13:07:41;99264.41;;;38.07;23.25
52719;BME280;38616;42.140;24.760;2023-07-13T13:10:15;99249.13;;;38.04;22.54
52719;BME280;38616;42.140;24.760;2023-07-13T13:12:40;99248.31;;;38.13;22.20
52719;BME280;38616;42.140;24.760;2023-07-13T13:15:09;99248.78;;;38.11;22.34
52719;BME280;38616;42.140;24.760;2023-07-13T13:17:36;99249.94;;;38.05;22.86
52719;BME280;38616;42.140;24.760;2023-07-13T13:20:02;99247.06;;;38.14;22.25
52719;BME280;38616;42.140;24.760;2023-07-13T13:22:31;99246.31;;;38.04;22.25
52719;BME280;38616;42.140;24.760;2023-07-13T13:24:57;99243.63;;;38.10;22.08
52719;BME280;38616;42.140;24.760;2023-07-13T13:27:22;99238.75;;;38.01;22.42
52719;BME280;38616;42.140;24.760;2023-07-13T13:29:51;99242.03;;;38.09;22.17
52719;BME280;38616;42.140;24.760;2023-07-13T13:32:19;99231.47;;;38.09;22.29
52719;BME280;38616;42.140;24.760;2023-07-13T13:34:45;99227.88;;;38.09;22.06
52719;BME280;38616;42.140;24.760;2023-07-13T13:37:43;99220.31;;;38.06;21.69
52719;BME280;38616;42.140;24.760;2023-07-13T13:40:01;99219.78;;;38.17;21.65